Findlay, OH

8:12 AM EST on March 01, 2015 (GMT -0500)
Toledo Express | Change Station
CLOSE
Current Station
Airport
Location: Toledo,
Elevation: 692 ft
Nearby Weather Stations
Active Advisory: Winter Weather Advisory Active Notice: Record Report

Elev 692 ft 41.59 °N, 83.81 °W | Updated 9 minutes ago

Snow
Snow
18 °F
Feels Like 18 °F
N
0
Wind Variable Wind from North

Today
High -- | Low -- °F
--% Chance of Precip.
Yesterday
High -- | Low -- °F
Precip. -- in
7:09 AM 6:25 PM
Waxing Gibbous, 85% visible
Pressure 30.39 in
Visibility 1.0 miles
Clouds Overcast 3300 ft
Dew Point 14 °F
Humidity 86%
Rainfall 0.16 in
Snow Depth Not available.
UV 0 out of 12
Pollen .40 out of 12
Air Quality Not available.
Flu Activity Not available.
SPECI KTOL 011303Z 00000KT 1SM -SN BR OVC033 M08/M10 A3039 RMK AO2 P0000 RVRNO

More Conditions Fewer Conditions

Pressure 30.39 in
Visibility 1.0 miles
Clouds Overcast 3300 ft
Dew Point 14 °F
Humidity 86%
Rainfall 0.16 in
Snow Depth Not available.
UV 0 out of 12
Pollen .40 out of 12
Air Quality Not available.
Flu Activity Not available.
SPECI KTOL 011303Z 00000KT 1SM -SN BR OVC033 M08/M10 A3039 RMK AO2 P0000 RVRNO

More Conditions Fewer Conditions

10-Day Weather Forecast

Almanac

Astronomy

Mar. 01, 2015 Rise Set
Actual Time
Civil Twilight
Nautical Twilight
Astronomical Twilight
Moon
Length of Visible Light
Length of Day
Tomorrow will be .
, % of the Moon is Illuminated

Today's Extremes

State Highs State Lows

Community

WunderPhotos

Upload Photos

1,801,374 photos uploaded!

WunderBlogs® & News

Nearby

Air Quality

  Air Quality AQ Index Pollutant
Not available.

Snow Depth

Station Depth Elevation

Earthquake Activity

City Distance Mag. Time & Date
Minimum magnitude displayed is 2.5.

Coastal Water Temperatures

Place Temperature

Nearby Weather Stations

Winter Weather Advisory
Statement as of 3:15 AM EST on March 01, 2015

... Winter Weather Advisory remains in effect until 4 am EST
Monday...

* snow accumulations... 4 to 6 inches with the higher amounts south
of U.S. Highway 30.

* Timing... snow will continue today. The snow is expected to
begin diminishing this evening.

* Period of most intense snow... shortly after sunrise to early
afternoon. Snowfall rates could approach an inch per hour for a
few hours.

* Snow ending... gradually from west to east tonight.

* Impacts... snow will be the main threat during this event.
Hazardous travel conditions are expected due to reduced
visibility from the snow and snow accumulation. Light winds will
limit the potential for blowing and drifting.

Precautionary/preparedness actions...

A Winter Weather Advisory is normally issued for a variety of
winter weather conditions including light snow... blowing snow...
sleet... freezing rain and wind chills. While the weather will be
significant... the word advisory implies that severe winter
weather is not anticipated. Stay tuned to NOAA Weather Radio for
further details or updates.